Terminal Aerodrome Forecast
Issued by NWS

Home | Current Version | Previous Version | Text Only | Print | Product List | Glossary On
Versions: 1 2 3 4 5 6 7 8 9 10 11 12 13 14 15 16 17 18 19 20
536
FTUS46 KLOX 231729
TAFSBA
TAF
KSBA 231729Z 2318/2418 14008KT 6SM BR BKN007
     FM231900 16008KT P6SM SCT007
     FM232000 23008KT P6SM SKC
     FM240200 VRB03KT P6SM SKC
     FM240600 VRB03KT 4SM BR BKN006
     FM240800 12006KT 1SM BR OVC003
     FM241700 14005KT 4SM BR BKN007=

USA.gov is the U.S. government's official web portal to all federal, state and local government web resources and services.